createdAt,value
2019-05-06T00:01:24.843Z,4.40
2019-05-06T00:03:54.531Z,3.77
2019-05-06T00:06:24.185Z,3.55
2019-05-06T00:08:54.556Z,3.87
2019-05-06T00:11:24.437Z,3.42
2019-05-06T00:13:54.487Z,4.17
2019-05-06T00:16:24.184Z,5.15
2019-05-06T00:18:54.846Z,5.85
2019-05-06T00:21:24.626Z,4.35
2019-05-06T00:23:54.794Z,4.47
2019-05-06T00:26:46.164Z,4.03
2019-05-06T00:29:18.111Z,5.55
2019-05-06T00:31:47.820Z,5.03
2019-05-06T00:34:17.492Z,6.45
2019-05-06T00:36:47.074Z,5.33
2019-05-06T00:39:44.407Z,3.70
2019-05-06T00:42:34.714Z,5.65
2019-05-06T00:45:05.502Z,4.95
2019-05-06T00:47:35.183Z,6.50
2019-05-06T00:50:06.330Z,3.92
2019-05-06T00:52:36.615Z,4.62
2019-05-06T00:55:06.478Z,4.40
2019-05-06T00:57:45.401Z,4.40
2019-05-06T01:00:16.770Z,6.97
2019-05-06T01:02:46.557Z,3.92
2019-05-06T01:05:16.340Z,3.67
2019-05-06T01:07:46.019Z,3.98
2019-05-06T01:10:16.119Z,5.42
2019-05-06T01:13:00.488Z,7.20
2019-05-06T01:15:30.641Z,3.72
2019-05-06T01:18:00.304Z,4.80
2019-05-06T01:20:30.059Z,5.03
2019-05-06T01:22:59.697Z,4.87
2019-05-06T01:25:29.332Z,4.75
2019-05-06T01:27:58.908Z,5.85
2019-05-06T01:30:28.558Z,3.47
2019-05-06T01:32:58.228Z,5.05
2019-05-06T01:35:27.880Z,4.55
2019-05-06T01:38:15.185Z,6.22
2019-05-06T01:41:04.010Z,3.60
2019-05-06T01:43:34.741Z,5.30
2019-05-06T01:46:04.751Z,3.40
2019-05-06T01:48:49.825Z,6.42
2019-05-06T01:51:20.229Z,5.60
2019-05-06T01:53:50.140Z,5.22
2019-05-06T01:56:19.952Z,6.95
2019-05-06T01:58:53.611Z,4.50
2019-05-06T02:01:25.049Z,6.17
2019-05-06T02:03:54.931Z,4.62
2019-05-06T02:06:25.045Z,5.55
2019-05-06T02:08:54.822Z,4.33
2019-05-06T02:11:24.510Z,6.28
2019-05-06T02:13:54.212Z,7.80
2019-05-06T02:16:24.167Z,4.87
2019-05-06T02:18:54.084Z,9.83
2019-05-06T02:21:43.701Z,6.33
2019-05-06T02:24:18.309Z,5.53
2019-05-06T02:26:48.021Z,3.67
2019-05-06T02:29:19.284Z,7.62
2019-05-06T02:32:15.426Z,7.08
2019-05-06T02:34:36.830Z,6.30
2019-05-06T02:37:14.704Z,3.72
2019-05-06T02:39:44.622Z,4.60
2019-05-06T02:42:14.330Z,7.75
2019-05-06T02:44:45.455Z,4.58
2019-05-06T02:47:26.134Z,5.28
2019-05-06T02:49:58.818Z,7.53
2019-05-06T02:52:28.506Z,5.97
2019-05-06T02:54:58.167Z,5.90
2019-05-06T02:57:27.851Z,7.10
2019-05-06T03:00:04.744Z,5.75
2019-05-06T03:02:39.810Z,5.35
2019-05-06T03:05:04.248Z,8.23
2019-05-06T03:07:37.633Z,5.08
2019-05-06T03:10:06.375Z,7.37
2019-05-06T03:12:36.041Z,6.80
2019-05-06T03:15:05.754Z,5.70
2019-05-06T03:17:36.624Z,6.53
2019-05-06T03:20:07.969Z,6.30
2019-05-06T03:22:54.436Z,7.75
2019-05-06T03:25:32.927Z,5.40
2019-05-06T03:28:03.980Z,5.45
2019-05-06T03:30:36.366Z,5.33
2019-05-06T03:35:50.478Z,6.28
2019-05-06T03:38:06.265Z,6.28
2019-05-06T03:40:38.031Z,7.75
2019-05-06T03:43:07.254Z,6.67
2019-05-06T03:46:14.013Z,5.87
2019-05-06T03:48:44.464Z,4.80
2019-05-06T03:51:14.242Z,6.87
2019-05-06T03:53:44.330Z,7.12
2019-05-06T03:56:19.283Z,5.10
2019-05-06T03:58:45.479Z,5.92
2019-05-06T04:01:15.355Z,6.55
2019-05-06T04:03:51.343Z,6.55
2019-05-06T04:06:16.347Z,6.47
2019-05-06T04:08:46.201Z,7.28
2019-05-06T04:11:17.788Z,8.43
2019-05-06T04:13:49.154Z,6.70
2019-05-06T04:16:37.916Z,9.25
2019-05-06T04:19:13.114Z,7.20
2019-05-06T04:21:53.167Z,5.58
2019-05-06T04:24:54.277Z,7.60
2019-05-06T04:27:34.678Z,6.83
2019-05-06T04:30:04.933Z,6.35
2019-05-06T04:32:34.749Z,6.37
2019-05-06T04:35:04.788Z,9.08
2019-05-06T04:37:34.824Z,8.60
2019-05-06T04:40:04.833Z,7.30
2019-05-06T04:42:35.622Z,6.10
2019-05-06T04:45:06.115Z,8.18
2019-05-06T04:47:35.824Z,6.85
2019-05-06T04:50:06.216Z,5.22
2019-05-06T04:52:35.930Z,7.00
2019-05-06T04:55:05.763Z,7.10
2019-05-06T04:57:36.286Z,7.33
2019-05-06T05:00:06.039Z,6.00
2019-05-06T05:02:35.866Z,7.55
2019-05-06T05:05:05.985Z,8.65
2019-05-06T05:07:35.662Z,7.22
2019-05-06T05:10:15.164Z,8.30
2019-05-06T05:12:57.490Z,7.12
2019-05-06T05:15:52.527Z,10.13
2019-05-06T05:18:32.010Z,9.15
2019-05-06T05:21:02.441Z,11.05
2019-05-06T05:23:32.196Z,8.95
2019-05-06T05:26:02.852Z,10.35
2019-05-06T05:28:32.825Z,11.63
2019-05-06T05:31:03.028Z,10.98
2019-05-06T05:33:33.812Z,10.40
2019-05-06T05:36:03.517Z,10.53
2019-05-06T05:38:33.811Z,10.78
2019-05-06T05:41:03.658Z,9.73
2019-05-06T05:43:42.398Z,9.25
2019-05-06T05:46:12.624Z,11.48
2019-05-06T05:49:02.725Z,9.98
2019-05-06T05:51:32.816Z,8.35
2019-05-06T05:54:02.454Z,13.88
2019-05-06T05:56:33.233Z,11.35
2019-05-06T05:59:03.438Z,13.30
2019-05-06T06:01:34.399Z,9.30
2019-05-06T06:04:04.067Z,10.80
2019-05-06T06:06:33.876Z,9.55
2019-05-06T06:09:05.764Z,9.00
2019-05-06T06:11:56.311Z,13.00
2019-05-06T06:14:56.157Z,9.73
2019-05-06T06:17:43.315Z,10.00
2019-05-06T06:20:32.723Z,9.85
2019-05-06T06:23:07.786Z,14.00
2019-05-06T06:25:37.512Z,14.83
2019-05-06T06:28:07.227Z,10.32
2019-05-06T06:30:52.836Z,12.75
2019-05-06T06:33:22.519Z,9.05
2019-05-06T06:36:14.744Z,14.75
2019-05-06T06:39:03.474Z,8.50
2019-05-06T06:41:34.734Z,10.43
2019-05-06T06:44:07.698Z,9.50
2019-05-06T06:46:37.430Z,10.43
2019-05-06T06:49:07.453Z,13.13
2019-05-06T06:51:37.343Z,15.93
2019-05-06T06:54:07.161Z,11.57
2019-05-06T06:56:44.183Z,13.50
2019-05-06T06:59:27.809Z,9.73
2019-05-06T07:02:11.974Z,10.78
2019-05-06T07:04:49.149Z,10.90
2019-05-06T07:07:19.426Z,8.55
2019-05-06T07:09:49.068Z,8.60
2019-05-06T07:12:18.792Z,12.80
2019-05-06T07:14:52.325Z,13.38
2019-05-06T07:17:22.822Z,8.08
2019-05-06T07:19:55.957Z,8.60
2019-05-06T07:22:32.490Z,8.43
2019-05-06T07:25:03.708Z,9.08
2019-05-06T07:27:33.573Z,10.65
2019-05-06T07:30:03.307Z,14.35
2019-05-06T07:32:32.992Z,8.93
2019-05-06T07:35:05.882Z,7.85
2019-05-06T07:37:33.861Z,7.75
2019-05-06T07:40:04.027Z,5.12
2019-05-06T07:42:44.324Z,10.10
2019-05-06T07:45:42.410Z,10.25
2019-05-06T07:48:14.124Z,7.40
2019-05-06T07:50:44.819Z,7.80
2019-05-06T07:53:26.782Z,8.18
2019-05-06T07:55:56.475Z,9.60
2019-05-06T07:58:26.200Z,12.10
2019-05-06T08:00:55.908Z,9.58
2019-05-06T08:03:25.608Z,5.22
2019-05-06T08:05:58.660Z,9.18
2019-05-06T08:08:26.654Z,8.15
2019-05-06T08:10:56.325Z,8.73
2019-05-06T08:13:26.073Z,10.40
2019-05-06T08:15:55.752Z,5.03
2019-05-06T08:18:26.652Z,4.60
2019-05-06T08:20:57.500Z,9.40
2019-05-06T08:23:43.662Z,6.25
2019-05-06T08:26:17.359Z,8.98
2019-05-06T08:28:45.632Z,6.45
2019-05-06T08:31:16.903Z,7.95
2019-05-06T08:33:46.624Z,5.97
2019-05-06T08:36:22.930Z,7.95
2019-05-06T08:39:02.977Z,7.65
2019-05-06T08:41:34.501Z,9.28
2019-05-06T08:44:05.097Z,3.42
2019-05-06T08:46:34.898Z,4.70
2019-05-06T08:49:04.536Z,4.78
2019-05-06T08:52:02.588Z,7.00
2019-05-06T08:54:36.892Z,6.60
2019-05-06T08:57:06.523Z,7.28
2019-05-06T08:59:36.229Z,7.50
2019-05-06T09:02:06.068Z,4.40
2019-05-06T09:04:35.711Z,7.53
2019-05-06T09:07:05.342Z,9.05
2019-05-06T09:09:35.055Z,8.88
2019-05-06T09:12:04.759Z,11.18
2019-05-06T09:14:34.416Z,5.95
2019-05-06T09:17:04.602Z,4.35
2019-05-06T09:19:34.379Z,5.72
2019-05-06T09:22:04.067Z,4.45
2019-05-06T09:24:33.846Z,4.85
2019-05-06T09:27:16.583Z,6.10
2019-05-06T09:29:52.339Z,6.35
2019-05-06T09:32:25.403Z,7.92
2019-05-06T09:34:56.984Z,6.90
2019-05-06T09:37:26.666Z,6.33
2019-05-06T09:39:56.401Z,3.95
2019-05-06T09:42:26.212Z,6.78
2019-05-06T09:44:56.768Z,5.78
2019-05-06T09:47:50.050Z,10.85
2019-05-06T09:50:32.353Z,7.35
2019-05-06T09:53:02.612Z,7.28
2019-05-06T09:55:38.486Z,8.60
2019-05-06T09:58:08.805Z,7.80
2019-05-06T10:00:42.899Z,5.72
2019-05-06T10:03:12.815Z,4.33
2019-05-06T10:05:42.655Z,3.95
2019-05-06T10:08:12.667Z,6.97
2019-05-06T10:10:53.733Z,5.17
2019-05-06T10:13:13.855Z,4.87
2019-05-06T10:15:43.595Z,8.28
2019-05-06T10:18:13.577Z,7.15
2019-05-06T10:20:44.601Z,4.15
2019-05-06T10:23:15.853Z,3.47
2019-05-06T10:25:45.526Z,4.67
2019-05-06T10:28:29.095Z,2.72
2019-05-06T10:30:58.867Z,4.00
2019-05-06T10:33:28.954Z,5.12
2019-05-06T10:36:03.128Z,2.90
2019-05-06T10:38:37.466Z,5.03
2019-05-06T10:41:09.842Z,3.90
2019-05-06T10:43:53.086Z,4.83
2019-05-06T10:46:22.785Z,3.75
2019-05-06T10:48:53.028Z,4.92
2019-05-06T10:51:29.397Z,4.28
2019-05-06T10:53:59.083Z,6.15
2019-05-06T10:57:03.680Z,5.05
2019-05-06T10:59:33.366Z,6.15
2019-05-06T11:02:17.605Z,5.80
2019-05-06T11:04:48.252Z,6.78
2019-05-06T11:07:29.378Z,9.10
2019-05-06T11:09:49.430Z,6.58
2019-05-06T11:12:19.195Z,4.92
2019-05-06T11:14:48.855Z,8.15
2019-05-06T11:17:18.563Z,9.43
2019-05-06T11:19:48.276Z,4.78
2019-05-06T11:22:21.169Z,10.15
2019-05-06T11:24:49.382Z,5.65
2019-05-06T11:27:28.815Z,6.95
2019-05-06T11:29:53.060Z,7.87
2019-05-06T11:32:44.512Z,7.10
2019-05-06T11:35:22.713Z,6.22
2019-05-06T11:38:05.362Z,6.65
2019-05-06T11:40:35.113Z,4.05
2019-05-06T11:43:04.857Z,5.03
2019-05-06T11:45:36.244Z,6.85
2019-05-06T11:48:06.013Z,6.72
2019-05-06T11:50:37.183Z,5.28
2019-05-06T11:53:06.901Z,4.97
2019-05-06T11:55:38.782Z,5.25
2019-05-06T11:58:27.082Z,7.90
2019-05-06T12:00:58.474Z,6.00
2019-05-06T12:03:28.166Z,5.50
2019-05-06T12:05:58.023Z,5.65
2019-05-06T12:08:27.838Z,8.25
2019-05-06T12:10:57.838Z,4.90
2019-05-06T12:13:27.863Z,6.47
2019-05-06T12:15:57.635Z,6.12
2019-05-06T12:18:27.392Z,4.62
2019-05-06T12:21:08.196Z,5.33
2019-05-06T12:23:35.395Z,5.95
2019-05-06T12:26:02.874Z,8.33
2019-05-06T12:28:32.742Z,4.95
2019-05-06T12:31:02.530Z,6.45
2019-05-06T12:33:36.394Z,8.35
2019-05-06T12:36:18.128Z,3.83
2019-05-06T12:39:06.734Z,6.00
2019-05-06T12:41:43.133Z,8.38
2019-05-06T12:44:13.236Z,9.15
2019-05-06T12:46:54.928Z,7.50
2019-05-06T12:49:26.917Z,5.22
2019-05-06T12:51:56.842Z,3.12
2019-05-06T12:54:26.614Z,3.42
2019-05-06T12:56:57.867Z,6.28
2019-05-06T12:59:27.626Z,6.08
2019-05-06T13:01:57.330Z,4.20
2019-05-06T13:04:45.997Z,5.20
2019-05-06T13:06:58.429Z,6.87
2019-05-06T13:09:28.408Z,8.13
2019-05-06T13:11:58.595Z,5.92
2019-05-06T13:14:28.507Z,6.33
2019-05-06T13:16:58.591Z,4.80
2019-05-06T13:19:28.471Z,5.37
2019-05-06T13:21:58.533Z,5.17
2019-05-06T13:24:28.458Z,5.67
2019-05-06T13:26:59.100Z,7.17
2019-05-06T13:29:35.165Z,6.55
2019-05-06T13:32:06.348Z,7.90
2019-05-06T13:34:37.812Z,5.45
2019-05-06T13:37:07.641Z,3.42
2019-05-06T13:39:38.836Z,6.40
2019-05-06T13:42:09.203Z,4.50
2019-05-06T13:44:38.923Z,5.45
2019-05-06T13:47:12.127Z,4.47
2019-05-06T13:49:55.244Z,3.25
2019-05-06T13:52:33.612Z,3.62
2019-05-06T13:55:03.356Z,5.55
2019-05-06T13:57:33.089Z,5.90
2019-05-06T14:00:03.281Z,4.65
2019-05-06T14:02:55.416Z,5.17
2019-05-06T14:05:25.093Z,3.27
2019-05-06T14:07:54.831Z,2.87
2019-05-06T14:10:24.542Z,8.65
2019-05-06T14:12:54.257Z,5.15
2019-05-06T14:15:23.956Z,4.00
2019-05-06T14:17:53.706Z,6.80
2019-05-06T14:20:23.366Z,4.85
2019-05-06T14:22:53.193Z,4.42
2019-05-06T14:25:43.366Z,4.45
2019-05-06T14:28:35.418Z,4.15
2019-05-06T14:31:17.196Z,4.20
2019-05-06T14:33:46.907Z,3.80
2019-05-06T14:36:16.589Z,5.33
2019-05-06T14:38:46.342Z,2.52
2019-05-06T14:41:18.893Z,4.50
2019-05-06T14:43:48.571Z,5.72
2019-05-06T14:46:18.361Z,5.33
2019-05-06T14:48:48.123Z,5.25
2019-05-06T14:51:17.824Z,5.40
2019-05-06T14:53:47.626Z,4.08
2019-05-06T14:56:23.579Z,3.52
2019-05-06T14:59:12.667Z,3.67
2019-05-06T15:01:45.537Z,3.35
2019-05-06T15:04:14.255Z,5.17
2019-05-06T15:06:44.284Z,6.80
2019-05-06T15:09:14.542Z,5.17
2019-05-06T15:11:44.707Z,5.30
2019-05-06T15:14:14.592Z,5.40
2019-05-06T15:16:44.628Z,3.67
2019-05-06T15:19:14.642Z,3.25
2019-05-06T15:21:44.313Z,3.75
2019-05-06T15:24:14.684Z,3.67
2019-05-06T15:26:44.677Z,4.00
2019-05-06T15:29:14.343Z,4.90
2019-05-06T15:31:58.456Z,5.25
2019-05-06T15:34:47.124Z,2.92
2019-05-06T15:37:21.560Z,3.47
2019-05-06T15:39:52.286Z,3.95
2019-05-06T15:42:22.551Z,5.70
2019-05-06T15:44:52.261Z,4.83
2019-05-06T15:47:22.680Z,4.22
2019-05-06T15:49:55.562Z,3.42
2019-05-06T15:52:25.310Z,8.70
2019-05-06T15:55:14.045Z,3.33
2019-05-06T15:57:43.831Z,8.98
2019-05-06T16:00:15.237Z,2.95
2019-05-06T16:02:44.932Z,4.53
2019-05-06T16:05:20.339Z,8.58
2019-05-06T16:07:46.043Z,6.97
2019-05-06T16:10:16.260Z,5.37
2019-05-06T16:12:49.060Z,3.25
2019-05-06T16:15:24.482Z,8.48
2019-05-06T16:17:53.521Z,3.12
2019-05-06T16:20:23.189Z,5.53
2019-05-06T16:22:59.994Z,6.37
2019-05-06T16:25:29.771Z,6.33
2019-05-06T16:27:59.448Z,3.77
2019-05-06T16:30:29.318Z,5.05
2019-05-06T16:32:59.165Z,4.85
2019-05-06T16:35:28.877Z,3.47
2019-05-06T16:37:58.693Z,6.97
2019-05-06T16:40:28.416Z,4.08
2019-05-06T16:42:58.224Z,4.00
2019-05-06T16:45:27.957Z,4.83
2019-05-06T16:47:58.634Z,5.05
2019-05-06T16:50:29.749Z,4.92
2019-05-06T16:52:59.890Z,4.08
2019-05-06T16:55:47.655Z,8.13
2019-05-06T16:58:19.226Z,4.03
2019-05-06T17:00:49.040Z,7.67
2019-05-06T17:03:27.187Z,5.08
2019-05-06T17:06:23.130Z,3.22
2019-05-06T17:08:53.182Z,3.67
2019-05-06T17:11:30.583Z,5.95
2019-05-06T17:13:54.276Z,3.85
2019-05-06T17:16:24.077Z,9.55
2019-05-06T17:18:56.516Z,4.65
2019-05-06T17:21:25.236Z,5.12
2019-05-06T17:23:55.246Z,3.12
2019-05-06T17:26:25.167Z,11.25
2019-05-06T17:28:59.534Z,8.43
2019-05-06T17:31:38.335Z,4.53
2019-05-06T17:34:09.234Z,3.98
2019-05-06T17:36:42.107Z,3.75
2019-05-06T17:39:11.769Z,15.93
2019-05-06T17:41:48.939Z,5.65
2019-05-06T17:44:16.868Z,4.05
2019-05-06T17:46:59.236Z,5.72
2019-05-06T17:49:29.419Z,7.20
2019-05-06T17:52:12.717Z,5.47
2019-05-06T17:54:43.052Z,4.97
2019-05-06T17:57:12.869Z,4.45
2019-05-06T17:59:42.586Z,5.10
2019-05-06T18:02:19.326Z,5.37
2019-05-06T18:04:53.713Z,7.45
2019-05-06T18:07:23.483Z,5.85
2019-05-06T18:09:53.427Z,5.42
2019-05-06T18:12:23.402Z,10.75
2019-05-06T18:14:53.479Z,3.67
2019-05-06T18:17:24.486Z,4.17
2019-05-06T18:19:55.327Z,8.08
2019-05-06T18:22:25.067Z,4.87
2019-05-06T18:24:55.281Z,5.33
2019-05-06T18:27:25.065Z,3.83
2019-05-06T18:29:55.072Z,4.20
2019-05-06T18:32:25.902Z,3.65
2019-05-06T18:34:55.825Z,5.22
2019-05-06T18:37:25.717Z,5.28
2019-05-06T18:39:55.951Z,4.72
2019-05-06T18:42:25.887Z,3.70
2019-05-06T18:44:55.790Z,6.67
2019-05-06T18:47:25.752Z,4.67
2019-05-06T18:49:55.672Z,3.83
2019-05-06T18:52:25.605Z,3.42
2019-05-06T18:54:55.589Z,4.37
2019-05-06T18:57:25.576Z,5.60
2019-05-06T18:59:56.008Z,6.17
2019-05-06T19:02:26.855Z,4.30
2019-05-06T19:05:24.896Z,7.10
2019-05-06T19:07:54.130Z,4.83
2019-05-06T19:10:33.385Z,4.50
2019-05-06T19:13:03.587Z,5.50
2019-05-06T19:15:37.221Z,5.58
2019-05-06T19:18:07.319Z,6.45
2019-05-06T19:20:42.351Z,10.35
2019-05-06T19:23:13.065Z,6.42
2019-05-06T19:25:43.189Z,7.35
2019-05-06T19:28:14.301Z,9.10
2019-05-06T19:30:44.534Z,9.60
2019-05-06T19:33:14.898Z,7.97
2019-05-06T19:35:45.170Z,7.05
2019-05-06T19:38:15.088Z,6.90
2019-05-06T19:40:45.080Z,9.25
2019-05-06T19:43:18.859Z,13.78
2019-05-06T19:45:49.593Z,9.00
2019-05-06T19:48:22.191Z,8.63
2019-05-06T19:50:52.841Z,8.85
2019-05-06T19:53:23.664Z,13.43
2019-05-06T19:55:54.904Z,8.20
2019-05-06T19:58:24.971Z,9.35
2019-05-06T20:00:56.385Z,6.42
2019-05-06T20:03:26.452Z,6.90
2019-05-06T20:06:09.849Z,6.22
2019-05-06T20:08:48.810Z,7.75
2019-05-06T20:11:40.060Z,6.60
2019-05-06T20:14:09.873Z,6.15
2019-05-06T20:16:42.118Z,5.62
2019-05-06T20:19:14.050Z,5.20
2019-05-06T20:21:43.243Z,6.50
2019-05-06T20:24:13.103Z,8.50
2019-05-06T20:26:43.137Z,5.08
2019-05-06T20:29:13.240Z,5.92
2019-05-06T20:31:43.141Z,9.50
2019-05-06T20:34:13.032Z,4.55
2019-05-06T20:36:43.867Z,5.03
2019-05-06T20:39:16.300Z,5.95
2019-05-06T20:41:46.644Z,11.78
2019-05-06T20:44:16.400Z,7.00
2019-05-06T20:46:46.248Z,7.37
2019-05-06T20:49:16.017Z,8.83
2019-05-06T20:51:45.781Z,5.00
2019-05-06T20:54:17.437Z,5.00
2019-05-06T20:56:47.084Z,6.03
2019-05-06T20:59:17.024Z,9.38
2019-05-06T21:01:46.802Z,8.43
2019-05-06T21:04:16.553Z,5.90
2019-05-06T21:06:46.267Z,7.47
2019-05-06T21:09:15.971Z,7.40
2019-05-06T21:11:45.726Z,6.28
2019-05-06T21:14:15.650Z,5.08
2019-05-06T21:16:47.991Z,7.42
2019-05-06T21:19:16.710Z,8.70
2019-05-06T21:21:46.449Z,6.05
2019-05-06T21:24:16.101Z,7.33
2019-05-06T21:26:46.407Z,5.33
2019-05-06T21:29:16.462Z,6.30
2019-05-06T21:31:46.150Z,7.62
2019-05-06T21:34:15.971Z,6.22
2019-05-06T21:36:45.669Z,5.33
2019-05-06T21:39:15.323Z,6.58
2019-05-06T21:41:45.004Z,5.30
2019-05-06T21:44:14.684Z,7.70
2019-05-06T21:46:44.342Z,9.53
2019-05-06T21:49:14.018Z,5.55
2019-05-06T21:51:43.686Z,7.42
2019-05-06T21:54:13.394Z,7.47
2019-05-06T21:56:43.159Z,5.62
2019-05-06T21:59:13.098Z,7.08
2019-05-06T22:01:43.241Z,8.90
2019-05-06T22:04:13.148Z,10.38
2019-05-06T22:06:45.550Z,9.45
2019-05-06T22:09:15.645Z,10.35
2019-05-06T22:11:45.380Z,6.40
2019-05-06T22:14:15.047Z,14.87
2019-05-06T22:16:44.731Z,19.17
2019-05-06T22:19:14.424Z,16.97
2019-05-06T22:22:03.384Z,8.95
2019-05-06T22:24:52.526Z,18.40
2019-05-06T22:27:21.964Z,13.95
2019-05-06T22:29:52.336Z,10.72
2019-05-06T22:32:23.169Z,9.58
2019-05-06T22:34:53.163Z,7.90
2019-05-06T22:37:22.904Z,9.68
2019-05-06T22:39:52.881Z,12.78
2019-05-06T22:42:24.904Z,13.68
2019-05-06T22:44:53.961Z,13.65
2019-05-06T22:47:23.682Z,11.40
2019-05-06T22:49:54.500Z,9.98
2019-05-06T22:52:24.153Z,12.65
2019-05-06T22:54:53.791Z,11.03
2019-05-06T22:57:23.642Z,11.05
2019-05-06T22:59:53.267Z,14.63
2019-05-06T23:02:48.184Z,15.08
2019-05-06T23:05:17.850Z,13.75
2019-05-06T23:07:47.558Z,12.47
2019-05-06T23:10:17.234Z,13.53
2019-05-06T23:12:46.937Z,17.77
2019-05-06T23:15:17.170Z,14.75
2019-05-06T23:17:46.886Z,9.38
2019-05-06T23:20:16.744Z,9.43
2019-05-06T23:23:12.826Z,7.83
2019-05-06T23:25:43.630Z,14.07
2019-05-06T23:28:13.324Z,6.92
2019-05-06T23:30:43.020Z,10.85
2019-05-06T23:33:14.006Z,9.00
2019-05-06T23:35:44.006Z,6.78
2019-05-06T23:38:33.802Z,7.05
2019-05-06T23:41:21.946Z,10.00
2019-05-06T23:44:09.655Z,8.48
2019-05-06T23:46:57.359Z,9.20
2019-05-06T23:49:44.856Z,7.72
2019-05-06T23:52:32.370Z,9.33
2019-05-06T23:55:21.589Z,8.70
2019-05-06T23:57:52.490Z,6.87
